Airfield :
LOGIN :

Register | Disclaimer

   EN    FR    IT 

 










Legend :    VFR   Marginal VFR   IFR   Intensive IFR   Very Intensive IFR
Visi :
Ceiling :
>= 8 km
>= 3000ft
5 to 8 km
1000 to 3000 ft
1500m to 5 km
500 to 1000 ft
800 to 1500m
200 to 500 ft
< 800m
< 200 ft
Symbols :   Thunderstorms  Fog  Heavy snow  Heavy precipitations  Wind > 20 kt
SIGMETs :     Misc.  Thunderstorms  Icing  Turbulence  Mountain Waves  Volcanic Ashes






- Airport Elevation : 433 ft


LFOC - Chateaudun

CURRENT METAR :
  • 100930Z AUTO 17006KT 9999 ////// 02/02 Q1027

EXPIRED METARs :
  • 100900Z AUTO 17005KT 9000 ////// 01/01 Q1027
  • 100830Z AUTO 17006KT 9999 ////// 00/00 Q1028
  • 100800Z AUTO 18005KT 9999 ////// M01/M01 Q1028
  • 100730Z AUTO 17005KT 9000 ////// M01/M01 Q1028
  • 100700Z AUTO 19004KT 9000 ////// M02/M02 Q1028

TAF TAF LFOC
Valid from the 10 at 09:00 until the 11 at 09:00 UTC


100800Z 1009/1109 18004KT CAVOK
BECMG 1010/1012 18014KT
TEMPO 1018/1022 4900 -RA
TEMPO 1100/1108 4900 -RA BKN008 BKN020



MET'MAP, your aeronautical weather chart ! - Copyright ORBIFLY December 2007 - Disclaimer

ORBIFLY MET'MAP TEAM :

Programming & Development : Alexandra Zaïnal
Concept & original design : Baudouin d'Aumeries
Assistance for programming : Marc-Olivier Méhu
Technical & hardware support : Manuel Goepfert

Contact : metmap@orbifly.com




SOURCES & CREDITS :

   NOAA